Time;durP1;ratioP1;P1;durP2;ratioP2;P2;SDS_P1;SDS_P2;PMS_P1;PMS_P2;Temp;Humidity;BMP_temperature;BMP_pressure;BME280_temperature;BME280_humidity;BME280_pressure;Samples;Min_cycle;Max_cycle;Signal;HPM_P1;HPM_P2
2022/01/01 00:02:19;;;;;;;;;56.25;44.25;;;;;13.36;77.13;101932.63;5046981;28;45607;-55
2022/01/01 00:04:44;;;;;;;;;59.00;44.25;;;;;13.28;77.22;101935.63;5012883;28;46633;-56
2022/01/01 00:07:10;;;;;;;;;49.75;38.75;;;;;13.28;77.78;101946.31;5045649;28;45455;-53
2022/01/01 00:09:36;;;;;;;;;52.25;42.00;;;;;13.28;77.46;101946.31;5046392;28;45552;-58
2022/01/01 00:12:02;;;;;;;;;57.00;44.25;;;;;13.31;77.10;101951.53;5044730;28;45390;-57
2022/01/01 00:14:29;;;;;;;;;58.50;47.25;;;;;13.31;77.18;101948.88;5044956;28;47041;-58
2022/01/01 00:16:55;;;;;;;;;58.00;47.25;;;;;13.32;77.04;101947.94;5028417;28;45279;-52
2022/01/01 00:19:21;;;;;;;;;52.75;43.75;;;;;13.31;76.96;101942.66;5044838;28;45282;-57
2022/01/01 00:21:46;;;;;;;;;56.75;45.75;;;;;13.24;76.83;101939.38;5050370;28;45434;-58
2022/01/01 00:24:12;;;;;;;;;56.25;44.50;;;;;13.30;77.07;101947.13;5046740;28;45267;-53
2022/01/01 00:26:37;;;;;;;;;52.75;43.50;;;;;13.31;77.00;101946.19;5044462;28;45230;-57
2022/01/01 00:29:04;;;;;;;;;60.75;47.00;;;;;13.33;76.58;101938.97;5046528;28;45330;-56
2022/01/01 00:31:30;;;;;;;;;51.50;44.75;;;;;13.31;76.48;101940.84;5044267;28;45483;-57
2022/01/01 00:33:57;;;;;;;;;58.25;46.25;;;;;13.23;76.47;101933.19;5045877;28;45426;-56
2022/01/01 00:36:23;;;;;;;;;59.25;47.25;;;;;13.29;76.69;101937.41;5044094;28;45445;-56
2022/01/01 00:38:48;;;;;;;;;54.00;42.75;;;;;13.28;76.86;101940.97;5044258;28;45451;-55
2022/01/01 00:41:14;;;;;;;;;53.50;40.50;;;;;13.22;76.84;101934.13;5027799;28;45447;-58
2022/01/01 00:43:40;;;;;;;;;58.00;45.50;;;;;13.28;76.92;101940.97;5046685;28;45567;-59
2022/01/01 00:46:05;;;;;;;;;55.75;41.25;;;;;13.17;76.94;101922.75;5044654;28;45270;-56
2022/01/01 00:48:31;;;;;;;;;52.75;40.50;;;;;13.25;77.02;101943.78;5026688;28;45355;-53
2022/01/01 00:50:57;;;;;;;;;56.25;46.25;;;;;13.25;77.15;101949.13;5047548;28;45363;-56
2022/01/01 00:53:22;;;;;;;;;55.75;43.50;;;;;13.24;77.31;101955.41;5042344;28;46033;-58
2022/01/01 00:55:48;;;;;;;;;50.75;42.00;;;;;13.24;76.81;101961.63;5045577;28;45359;-59
2022/01/01 00:58:13;;;;;;;;;53.50;43.00;;;;;13.25;77.29;101957.16;5045335;28;45428;-55
2022/01/01 01:00:38;;;;;;;;;53.25;41.50;;;;;13.25;76.63;101951.81;5044180;28;45630;-56
2022/01/01 01:03:09;;;;;;;;;51.00;42.50;;;;;13.26;77.30;101948.19;5027841;28;46402;-53
2022/01/01 01:05:34;;;;;;;;;57.25;43.75;;;;;13.24;77.20;101947.41;5045140;28;45423;-56
2022/01/01 01:07:59;;;;;;;;;52.25;45.25;;;;;13.22;77.59;101934.13;5044006;28;45465;-57
2022/01/01 01:10:25;;;;;;;;;50.25;40.00;;;;;13.23;77.40;101932.31;5046112;28;45517;-59
2022/01/01 01:12:52;;;;;;;;;52.75;39.00;;;;;13.24;76.79;101934.03;5044376;28;45486;-59
2022/01/01 01:15:18;;;;;;;;;53.25;42.00;;;;;13.25;77.21;101942.00;5043737;28;45236;-57
2022/01/01 01:17:45;;;;;;;;;51.25;41.00;;;;;13.27;77.05;101936.56;5045365;28;45286;-59
2022/01/01 01:20:12;;;;;;;;;51.25;42.25;;;;;13.25;77.08;101935.78;5026751;28;45427;-55
2022/01/01 01:22:38;;;;;;;;;42.50;38.00;;;;;13.20;76.95;101948.50;5025296;28;46439;-55
2022/01/01 01:25:04;;;;;;;;;50.00;41.50;;;;;13.13;77.29;101929.16;5045216;28;45442;-55
2022/01/01 01:27:30;;;;;;;;;50.75;41.75;;;;;13.16;76.95;101942.41;5044308;28;45364;-56
2022/01/01 01:29:58;;;;;;;;;52.75;41.75;;;;;13.17;76.85;101935.25;5044144;28;45566;-54
2022/01/01 01:32:23;;;;;;;;;45.50;38.00;;;;;13.18;77.13;101935.22;5044868;28;45355;-57
2022/01/01 01:34:49;;;;;;;;;45.50;41.25;;;;;13.17;76.88;101937.91;5043792;28;45200;-59
2022/01/01 01:37:14;;;;;;;;;45.50;37.75;;;;;13.12;76.82;101931.91;5043737;28;45391;-59
2022/01/01 01:39:39;;;;;;;;;48.00;41.25;;;;;13.11;77.30;101932.84;5045507;28;45567;-57
2022/01/01 01:42:05;;;;;;;;;52.75;40.25;;;;;13.13;77.03;101936.31;5043048;28;46613;-55
2022/01/01 01:44:41;;;;;;;;;53.25;42.00;;;;;13.09;77.04;101926.69;5044849;28;45500;-57
2022/01/01 01:47:14;;;;;;;;;49.00;39.75;;;;;13.09;77.16;101932.91;5029913;28;45297;-56
2022/01/01 01:49:40;;;;;;;;;49.25;40.50;;;;;13.11;76.94;101932.84;5045194;28;45368;-56
2022/01/01 01:52:07;;;;;;;;;46.50;35.50;;;;;12.96;76.96;101927.25;5043030;28;45929;-56
2022/01/01 01:54:33;;;;;;;;;41.00;37.75;;;;;12.98;77.19;101944.06;5025887;28;45584;-59
2022/01/01 01:56:58;;;;;;;;;45.50;38.00;;;;;12.94;77.07;101942.47;5044912;28;45490;-53
2022/01/01 01:59:24;;;;;;;;;32.25;28.50;;;;;12.91;77.44;101931.94;5043300;28;45989;-56
2022/01/01 02:01:51;;;;;;;;;42.75;38.50;;;;;12.88;77.58;101928.53;5047272;28;45499;-57
2022/01/01 02:04:17;;;;;;;;;46.00;41.25;;;;;12.85;77.53;101932.19;5030154;28;45280;-61
2022/01/01 02:06:43;;;;;;;;;45.75;40.50;;;;;12.83;77.59;101936.75;5046689;28;45284;-56
2022/01/01 02:09:12;;;;;;;;;39.50;34.75;;;;;12.82;77.44;101937.69;5030631;28;45347;-58
2022/01/01 02:11:38;;;;;;;;;46.50;38.50;;;;;12.80;77.47;101936.88;5047484;28;45391;-57
2022/01/01 02:14:13;;;;;;;;;42.00;38.25;;;;;12.75;77.32;101938.88;5046367;28;45486;-58
2022/01/01 02:16:55;;;;;;;;;39.50;34.50;;;;;12.72;77.57;101941.69;5046032;28;45642;-58
2022/01/01 02:19:25;;;;;;;;;46.00;35.75;;;;;12.68;77.67;101927.59;5048534;28;46507;-55
2022/01/01 02:21:56;;;;;;;;;47.25;39.50;;;;;12.65;77.77;101934.88;5046549;28;45522;-56
2022/01/01 02:24:21;;;;;;;;;41.75;37.75;;;;;12.62;77.98;101941.19;5045826;28;45265;-57
2022/01/01 02:26:47;;;;;;;;;43.00;37.50;;;;;12.62;78.13;101943.00;5047012;28;45450;-55
2022/01/01 02:29:12;;;;;;;;;45.25;39.50;;;;;12.59;77.89;101933.34;5046577;28;45657;-56
2022/01/01 02:31:37;;;;;;;;;55.00;40.00;;;;;12.55;78.09;101922.88;5029771;28;45591;-58
2022/01/01 02:34:06;;;;;;;;;37.75;34.75;;;;;12.55;78.27;101922.88;5046558;28;45408;-59
2022/01/01 02:36:40;;;;;;;;;49.75;43.00;;;;;12.51;78.36;101914.13;5046890;28;45467;-55
2022/01/01 02:39:20;;;;;;;;;54.00;42.00;;;;;12.51;78.16;101921.28;5047127;28;45800;-56
2022/01/01 02:41:48;;;;;;;;;50.75;42.25;;;;;12.48;78.67;101919.59;5046580;28;45502;-56
2022/01/01 02:44:14;;;;;;;;;51.50;42.00;;;;;12.43;78.37;101904.72;5044426;28;45386;-56
2022/01/01 02:46:40;;;;;;;;;54.50;42.00;;;;;12.43;78.57;101910.06;5048405;28;45267;-53
2022/01/01 02:49:06;;;;;;;;;52.00;41.75;;;;;12.36;78.49;101904.97;5047678;28;45545;-59
2022/01/01 02:51:32;;;;;;;;;49.75;42.75;;;;;12.36;78.69;101898.75;5048315;28;46257;-57
2022/01/01 02:53:58;;;;;;;;;41.00;36.75;;;;;12.36;78.92;101902.28;5045631;28;45338;-56
2022/01/01 02:56:25;;;;;;;;;49.50;40.00;;;;;12.31;78.58;101898.97;5047390;28;45337;-57
2022/01/01 02:58:51;;;;;;;;;48.00;40.75;;;;;12.31;78.85;101903.44;5047153;28;45542;-57
2022/01/01 03:01:17;;;;;;;;;42.00;36.50;;;;;12.27;78.91;101910.72;5048010;28;45600;-55
2022/01/01 03:03:42;;;;;;;;;49.75;40.25;;;;;12.27;78.75;101913.38;5027633;28;45477;-57
2022/01/01 03:06:08;;;;;;;;;46.00;40.00;;;;;12.25;78.92;101915.25;5046646;28;45947;-56
2022/01/01 03:08:33;;;;;;;;;47.25;39.00;;;;;12.23;79.22;101927.75;5029946;28;45360;-56
2022/01/01 03:11:02;;;;;;;;;45.75;40.00;;;;;12.22;78.95;101915.34;5045303;28;46289;-58
2022/01/01 03:13:31;;;;;;;;;55.00;43.75;;;;;12.24;79.20;101929.50;5045512;28;45447;-54
2022/01/01 03:15:56;;;;;;;;;46.00;38.75;;;;;12.22;79.00;101920.69;5047404;28;45434;-58
2022/01/01 03:18:21;;;;;;;;;44.25;38.00;;;;;12.18;79.20;101913.75;5045626;28;45379;-56
2022/01/01 03:20:47;;;;;;;;;42.25;38.50;;;;;12.22;79.32;101925.16;5046062;28;45429;-56
2022/01/01 03:23:12;;;;;;;;;51.50;42.25;;;;;12.18;79.06;101923.56;5046806;28;45374;-52
2022/01/01 03:25:38;;;;;;;;;53.75;43.25;;;;;12.18;79.13;101926.22;5045703;28;45574;-53
2022/01/01 03:28:04;;;;;;;;;54.50;45.50;;;;;12.18;79.14;101919.09;5029404;28;45635;-57
2022/01/01 03:30:29;;;;;;;;;42.25;34.75;;;;;12.16;79.39;101923.63;5046189;28;45393;-56
2022/01/01 03:32:55;;;;;;;;;56.50;42.75;;;;;12.18;79.07;101929.75;5045139;28;45274;-56
2022/01/01 03:35:20;;;;;;;;;58.25;46.25;;;;;12.16;79.17;101926.28;5047155;28;45244;-56
2022/01/01 03:37:46;;;;;;;;;57.75;44.75;;;;;12.08;79.41;101907.91;5045851;28;45276;-53
2022/01/01 03:40:11;;;;;;;;;56.50;45.50;;;;;12.13;79.42;101926.41;5045462;28;46004;-56
2022/01/01 03:42:37;;;;;;;;;47.25;42.25;;;;;12.09;79.41;101919.47;5046476;28;45374;-56
2022/01/01 03:45:03;;;;;;;;;55.75;42.00;;;;;12.09;79.31;101914.13;5043660;28;45692;-57
2022/01/01 03:47:30;;;;;;;;;51.00;40.00;;;;;12.02;79.58;101907.31;5046294;28;45721;-54
2022/01/01 03:49:56;;;;;;;;;44.75;38.25;;;;;11.92;79.37;101903.28;5045512;28;45533;-57
2022/01/01 03:52:21;;;;;;;;;46.50;39.00;;;;;11.92;79.93;101913.97;5044522;28;45639;-57
2022/01/01 03:54:47;;;;;;;;;53.50;42.25;;;;;11.89;79.68;101914.09;5046080;28;45352;-59
2022/01/01 03:57:12;;;;;;;;;44.50;37.50;;;;;11.90;80.24;101913.16;5028550;28;45617;-57
2022/01/01 03:59:38;;;;;;;;;48.50;37.75;;;;;11.88;80.06;101918.56;5044967;28;45377;-60
2022/01/01 04:02:03;;;;;;;;;40.25;36.00;;;;;11.85;80.00;101909.78;5046786;28;45458;-58
2022/01/01 04:04:29;;;;;;;;;41.50;37.50;;;;;11.84;80.09;101919.59;5045875;28;45453;-58
2022/01/01 04:06:55;;;;;;;;;41.00;38.00;;;;;11.82;79.99;101911.66;5045343;28;45514;-54
2022/01/01 04:09:20;;;;;;;;;51.50;38.75;;;;;11.78;80.31;101910.00;5046470;28;45913;-54
2022/01/01 04:11:46;;;;;;;;;41.00;35.50;;;;;11.75;80.41;101902.16;5045054;28;45440;-55
2022/01/01 04:14:14;;;;;;;;;38.50;34.00;;;;;11.75;80.43;101910.16;5045416;28;45280;-57
2022/01/01 04:16:40;;;;;;;;;34.75;30.50;;;;;11.74;80.33;101902.22;5047086;28;45620;-58
2022/01/01 04:19:06;;;;;;;;;31.00;28.00;;;;;11.65;80.65;101898.09;5044882;28;45471;-53
2022/01/01 04:21:31;;;;;;;;;38.00;32.75;;;;;11.70;80.36;101906.78;5045180;28;45522;-54
2022/01/01 04:23:57;;;;;;;;;34.50;32.50;;;;;11.71;80.46;101900.50;5046373;28;45462;-58
2022/01/01 04:26:24;;;;;;;;;40.50;35.75;;;;;11.72;80.19;101910.28;5044725;28;45454;-58
2022/01/01 04:28:49;;;;;;;;;35.25;32.25;;;;;11.72;80.36;101896.09;5044879;28;45352;-59
2022/01/01 04:31:15;;;;;;;;;40.00;32.75;;;;;11.70;80.37;101898.78;5045924;28;45312;-63
2022/01/01 04:33:43;;;;;;;;;33.50;31.25;;;;;11.69;80.71;101894.38;5044354;28;45328;-57
2022/01/01 04:36:09;;;;;;;;;36.75;29.75;;;;;11.68;80.24;101897.97;5045936;28;45666;-57
2022/01/01 04:38:36;;;;;;;;;30.50;28.50;;;;;11.68;80.35;101892.66;5045869;28;46116;-57
2022/01/01 04:41:06;;;;;;;;;30.50;28.75;;;;;11.63;80.34;101894.63;5044136;28;45459;-58
2022/01/01 04:43:32;;;;;;;;;31.25;29.75;;;;;11.62;80.47;101895.56;5045045;28;45607;-55
2022/01/01 04:45:57;;;;;;;;;31.75;29.50;;;;;11.57;80.69;101900.19;5031046;28;45522;-54
2022/01/01 04:48:23;;;;;;;;;29.00;26.00;;;;;11.57;80.80;101902.88;5009696;28;46821;-56
2022/01/01 04:50:48;;;;;;;;;36.25;30.25;;;;;11.58;80.53;101901.06;5027236;28;45388;-58
2022/01/01 04:53:17;;;;;;;;;38.75;33.25;;;;;11.58;80.25;101893.06;5046056;28;45382;-57
2022/01/01 04:55:43;;;;;;;;;29.00;27.50;;;;;11.59;80.29;101890.38;5029265;28;45434;-57
2022/01/01 04:58:08;;;;;;;;;27.25;27.25;;;;;11.55;80.22;101890.53;5029850;28;45367;-58
2022/01/01 05:00:34;;;;;;;;;29.00;26.25;;;;;11.60;80.41;101905.44;5027438;28;45366;-58
2022/01/01 05:02:59;;;;;;;;;32.75;29.50;;;;;11.54;80.44;101905.66;5044040;28;45371;-56
2022/01/01 05:05:25;;;;;;;;;35.75;29.75;;;;;11.56;80.26;101914.44;5045683;28;45329;-59
2022/01/01 05:07:50;;;;;;;;;35.00;32.75;;;;;11.52;80.11;101908.38;5043848;28;45597;-57
2022/01/01 05:10:16;;;;;;;;;39.25;34.25;;;;;11.55;79.76;101906.53;5043971;28;45394;-56
2022/01/01 05:12:42;;;;;;;;;8.00;6.50;;;;;11.55;79.95;101917.19;5046299;28;45285;-59
2022/01/01 05:15:08;;;;;;;;;38.00;33.50;;;;;11.50;80.09;101925.34;5044620;28;45311;-57
2022/01/01 05:17:33;;;;;;;;;33.50;33.50;;;;;11.45;80.14;101914.84;5042654;28;48337;-56
2022/01/01 05:19:59;;;;;;;;;37.00;33.75;;;;;11.50;79.69;101925.34;5027449;28;45250;-56
2022/01/01 05:22:24;;;;;;;;;39.00;35.50;;;;;11.49;79.89;101931.63;5044041;28;45451;-57
2022/01/01 05:24:50;;;;;;;;;38.75;33.00;;;;;11.49;79.62;101929.81;5026747;28;45696;-55
2022/01/01 05:27:15;;;;;;;;;36.25;34.50;;;;;11.50;79.66;101914.69;5027241;28;48240;-53
2022/01/01 05:29:40;;;;;;;;;35.75;30.00;;;;;11.46;79.92;101918.41;5025561;28;45344;-58
2022/01/01 05:32:06;;;;;;;;;39.50;32.75;;;;;11.45;79.46;101912.19;5043350;28;45508;-56
2022/01/01 05:34:31;;;;;;;;;39.50;30.75;;;;;11.38;79.80;101915.19;5044986;28;45488;-58
2022/01/01 05:36:57;;;;;;;;;34.50;31.50;;;;;11.32;80.42;101896.75;5046505;28;45468;-55
2022/01/01 05:39:22;;;;;;;;;27.25;26.00;;;;;11.32;80.36;101897.63;5049005;28;45438;-58
2022/01/01 05:41:52;;;;;;;;;36.00;33.00;;;;;11.33;80.17;101903.81;5047750;28;45419;-58
2022/01/01 05:44:18;;;;;;;;;35.50;31.50;;;;;11.33;80.35;101904.72;5047230;28;45924;-55
2022/01/01 05:46:43;;;;;;;;;33.00;28.00;;;;;11.33;80.10;101896.72;5049572;28;46006;-55
2022/01/01 05:49:08;;;;;;;;;31.50;30.25;;;;;11.32;80.14;101894.94;5048245;28;45482;-58
2022/01/01 05:51:34;;;;;;;;;36.75;28.50;;;;;11.27;80.12;101896.06;5048469;28;45443;-58
2022/01/01 05:53:59;;;;;;;;;30.25;26.50;;;;;11.26;80.50;101903.19;5047148;28;45734;-58
2022/01/01 05:56:25;;;;;;;;;29.75;29.75;;;;;11.24;79.95;101902.38;5047072;28;48038;-57
2022/01/01 05:58:50;;;;;;;;;36.00;29.75;;;;;11.16;80.21;101889.34;5047615;28;45450;-58
2022/01/01 06:01:15;;;;;;;;;25.75;23.50;;;;;11.22;80.15;101899.78;5029332;28;45467;-56
2022/01/01 06:03:41;;;;;;;;;36.75;32.00;;;;;11.18;80.14;101891.94;5048976;28;45433;-57
2022/01/01 06:06:06;;;;;;;;;39.00;31.00;;;;;11.14;80.05;101883.22;5028982;28;45478;-57
2022/01/01 06:08:32;;;;;;;;;32.25;29.50;;;;;11.13;80.33;101889.47;5047289;28;45454;-54
2022/01/01 06:10:58;;;;;;;;;28.00;24.50;;;;;11.13;80.23;101883.28;5048245;28;45975;-55
2022/01/01 06:13:23;;;;;;;;;27.50;25.25;;;;;11.08;80.11;101880.81;5048799;28;45593;-57
2022/01/01 06:15:49;;;;;;;;;30.75;25.75;;;;;11.10;80.54;101883.41;5047094;28;45300;-58
2022/01/01 06:18:14;;;;;;;;;29.00;26.75;;;;;11.04;80.25;101889.81;5047102;28;45367;-55
2022/01/01 06:20:39;;;;;;;;;26.00;25.50;;;;;11.06;80.64;101889.75;5048697;28;45453;-56
2022/01/01 06:23:06;;;;;;;;;34.50;30.50;;;;;10.99;80.20;101888.25;5046876;28;45617;-57
2022/01/01 06:25:35;;;;;;;;;24.00;23.00;;;;;11.02;80.43;101896.13;5047279;28;45282;-56
2022/01/01 06:28:01;;;;;;;;;33.00;26.00;;;;;11.02;80.23;101896.97;5048315;28;45427;-59
2022/01/01 06:30:33;;;;;;;;;36.50;32.25;;;;;11.02;80.02;101896.97;5046787;28;45380;-56
2022/01/01 06:33:01;;;;;;;;;26.50;23.00;;;;;11.01;80.26;101892.59;5045985;28;45467;-57
2022/01/01 06:35:27;;;;;;;;;32.75;27.75;;;;;10.99;80.46;101897.09;5047569;28;45475;-59
2022/01/01 06:37:52;;;;;;;;;28.50;28.00;;;;;10.97;80.38;101890.97;5029040;28;45564;-58
2022/01/01 06:40:18;;;;;;;;;23.75;21.00;;;;;10.94;80.35;101891.09;5046513;28;45521;-56
2022/01/01 06:42:43;;;;;;;;;27.25;25.00;;;;;10.91;80.51;101880.53;5048791;28;45384;-55
2022/01/01 06:45:09;;;;;;;;;27.00;23.25;;;;;10.89;80.84;101885.06;5043106;28;45917;-55
2022/01/01 06:47:34;;;;;;;;;26.00;23.00;;;;;10.85;80.58;101879.00;5044944;28;45470;-57
2022/01/01 06:50:00;;;;;;;;;24.00;23.00;;;;;10.86;80.57;101880.72;5045902;28;45309;-58
2022/01/01 06:52:25;;;;;;;;;27.50;27.25;;;;;10.83;80.26;101886.16;5047929;28;45318;-55
2022/01/01 06:54:50;;;;;;;;;28.25;27.75;;;;;10.81;80.85;101879.16;5046648;28;46178;-57
2022/01/01 06:57:16;;;;;;;;;33.75;26.25;;;;;10.83;80.36;101882.63;5046273;28;45223;-55
2022/01/01 06:59:41;;;;;;;;;34.50;30.25;;;;;10.77;80.02;101885.50;5047966;28;45160;-57
2022/01/01 07:02:06;;;;;;;;;25.00;22.25;;;;;10.78;80.48;101892.56;5046368;28;45190;-55
2022/01/01 07:04:32;;;;;;;;;30.00;26.25;;;;;10.75;80.75;101888.22;5046139;28;45280;-54
2022/01/01 07:06:57;;;;;;;;;28.25;24.00;;;;;10.69;80.50;101888.47;5047562;28;45201;-57
2022/01/01 07:09:22;;;;;;;;;26.75;24.75;;;;;10.71;80.29;101888.41;5045808;28;45261;-56
2022/01/01 07:11:50;;;;;;;;;27.00;23.25;;;;;10.70;80.43;101881.34;5047584;28;45599;-55
2022/01/01 07:14:16;;;;;;;;;30.75;25.25;;;;;10.68;80.73;101885.81;5047309;28;45364;-57
2022/01/01 07:16:41;;;;;;;;;24.25;22.50;;;;;10.66;80.49;101888.53;5027365;28;45709;-58
2022/01/01 07:19:07;;;;;;;;;22.50;21.50;;;;;10.68;80.92;101891.13;5047340;28;45272;-56
2022/01/01 07:21:32;;;;;;;;;22.75;21.75;;;;;10.62;80.48;101887.78;5046869;28;45639;-56
2022/01/01 07:23:58;;;;;;;;;25.25;23.00;;;;;10.62;80.46;101893.09;5045336;28;45885;-56
2022/01/01 07:26:24;;;;;;;;;30.75;27.00;;;;;10.63;80.20;101889.53;5045345;28;45479;-58
2022/01/01 07:28:49;;;;;;;;;21.25;20.25;;;;;10.64;79.94;101890.41;5046852;28;45438;-57
2022/01/01 07:31:15;;;;;;;;;28.25;20.75;;;;;10.60;80.33;101892.31;5047057;28;45605;-56
2022/01/01 07:33:40;;;;;;;;;23.25;21.75;;;;;10.60;80.54;101894.97;5045088;28;45393;-54
2022/01/01 07:36:05;;;;;;;;;24.25;20.75;;;;;10.62;80.29;101903.75;5045275;28;45368;-58
2022/01/01 07:38:31;;;;;;;;;31.00;24.75;;;;;10.61;80.46;101902.03;5046462;28;45237;-60
2022/01/01 07:40:56;;;;;;;;;26.00;24.75;;;;;10.57;80.67;101889.75;5047218;28;45647;-56
2022/01/01 07:43:23;;;;;;;;;26.00;24.25;;;;;10.54;80.63;101886.31;5026912;28;45292;-55
2022/01/01 07:45:48;;;;;;;;;28.50;24.00;;;;;10.56;80.42;101895.13;5047217;28;45439;-59
2022/01/01 07:48:14;;;;;;;;;25.75;22.25;;;;;10.56;80.56;101895.13;5044800;28;45690;-56
2022/01/01 07:50:40;;;;;;;;;28.50;22.00;;;;;10.52;80.67;101878.38;5027154;28;45565;-55
2022/01/01 07:53:08;;;;;;;;;26.25;20.00;;;;;10.48;80.49;101882.09;5046333;28;46218;-56
2022/01/01 07:55:33;;;;;;;;;21.25;21.25;;;;;10.49;80.62;101883.81;5045007;28;45557;-56
2022/01/01 07:57:59;;;;;;;;;29.75;26.25;;;;;10.48;80.41;101891.88;5046285;28;45522;-55
2022/01/01 08:00:24;;;;;;;;;34.75;27.25;;;;;10.46;80.03;101899.03;5045281;28;45478;-56
2022/01/01 08:02:49;;;;;;;;;27.25;25.00;;;;;10.37;79.84;101891.38;5045826;28;45762;-53
2022/01/01 08:05:16;;;;;;;;;28.50;21.00;;;;;10.42;80.65;101908.91;5046352;28;45315;-57
2022/01/01 08:07:43;;;;;;;;;27.25;21.00;;;;;10.44;80.57;101904.41;5043442;28;45399;-56
2022/01/01 08:10:09;;;;;;;;;22.00;17.25;;;;;10.43;79.91;101901.81;5046514;28;45172;-59
2022/01/01 08:12:34;;;;;;;;;29.75;22.00;;;;;10.40;80.11;101902.75;5046307;28;46203;-55
2022/01/01 08:15:00;;;;;;;;;28.50;24.75;;;;;10.38;80.88;101901.94;5044498;28;45220;-57
2022/01/01 08:17:25;;;;;;;;;21.75;16.25;;;;;10.34;81.04;101893.22;5046648;28;45542;-56
2022/01/01 08:19:51;;;;;;;;;24.75;23.00;;;;;10.36;80.66;101890.50;5044448;28;45488;-56
2022/01/01 08:22:17;;;;;;;;;20.75;20.75;;;;;10.36;80.34;101879.00;5036204;28;46296;-56
2022/01/01 08:24:43;;;;;;;;;18.25;17.50;;;;;10.37;80.40;101881.59;5018405;28;45916;-59
2022/01/01 08:27:08;;;;;;;;;32.75;20.75;;;;;10.34;81.02;101871.94;5036270;28;45435;-58
2022/01/01 08:29:34;;;;;;;;;23.50;22.75;;;;;10.39;80.77;101871.75;5042714;28;45369;-59
2022/01/01 08:31:59;;;;;;;;;24.75;24.00;;;;;10.40;80.59;101883.28;5039858;28;46288;-60
2022/01/01 08:34:25;;;;;;;;;26.00;20.75;;;;;10.38;80.71;101878.00;5035763;28;45565;-59
2022/01/01 08:36:51;;;;;;;;;11.00;8.25;;;;;10.40;80.89;101881.47;5036324;28;45271;-59
2022/01/01 08:39:18;;;;;;;;;25.75;21.75;;;;;10.37;80.77;101872.75;5036179;28;45388;-61
2022/01/01 08:41:45;;;;;;;;;20.25;18.25;;;;;10.43;80.26;101880.53;5017980;28;45292;-57
2022/01/01 08:44:11;;;;;;;;;21.75;20.00;;;;;10.43;80.43;101870.75;5035713;28;45302;-60
2022/01/01 08:46:36;;;;;;;;;21.50;16.75;;;;;10.46;80.19;101878.63;5051942;28;45371;-58
2022/01/01 08:49:03;;;;;;;;;23.75;21.50;;;;;10.47;80.02;101869.72;5056080;28;45462;-57
2022/01/01 08:51:29;;;;;;;;;26.00;20.75;;;;;10.47;80.41;101876.84;5048209;28;46355;-59
2022/01/01 08:53:54;;;;;;;;;21.75;19.00;;;;;10.44;79.82;101877.81;5045265;28;45482;-59
2022/01/01 08:56:20;;;;;;;;;25.25;19.00;;;;;10.47;79.60;101869.72;5026024;28;45501;-59
2022/01/01 08:58:46;;;;;;;;;22.50;16.50;;;;;10.54;79.37;101881.88;5045599;28;45346;-54
2022/01/01 09:01:16;;;;;;;;;21.25;17.25;;;;;10.56;78.96;101888.03;5016312;28;46475;-58
2022/01/01 09:03:42;;;;;;;;;18.00;16.50;;;;;10.62;79.10;101878.94;5054539;28;45351;-59
2022/01/01 09:06:09;;;;;;;;;19.50;19.50;;;;;10.64;78.64;101866.44;5051493;28;45482;-56
2022/01/01 09:08:40;;;;;;;;;20.00;20.00;;;;;10.69;78.93;101877.81;5042532;28;45510;-57
2022/01/01 09:11:07;;;;;;;;;17.50;17.50;;;;;10.63;78.25;101868.25;5046347;28;47471;-58
2022/01/01 09:13:32;;;;;;;;;16.50;16.00;;;;;10.64;78.84;101862.00;5053827;28;45552;-60
2022/01/01 09:15:58;;;;;;;;;20.00;16.50;;;;;10.66;78.35;101853.97;5046734;28;45513;-60
2022/01/01 09:18:24;;;;;;;;;18.00;16.50;;;;;10.71;78.70;101861.78;5054187;28;45468;-64
2022/01/01 09:20:49;;;;;;;;;15.50;15.50;;;;;10.72;78.73;101844.91;5063335;28;46445;-59
2022/01/01 09:23:16;;;;;;;;;18.75;16.50;;;;;10.81;78.46;101860.53;5054371;28;45387;-61
2022/01/01 09:25:41;;;;;;;;;16.25;12.75;;;;;10.84;78.06;101844.44;5046790;28;45534;-59
2022/01/01 09:28:08;;;;;;;;;23.75;19.75;;;;;10.80;78.35;101827.69;5045703;28;45376;-60
2022/01/01 09:30:34;;;;;;;;;16.50;15.75;;;;;10.85;77.62;101824.91;5046055;28;45537;-59
2022/01/01 09:33:00;;;;;;;;;16.25;16.00;;;;;10.86;77.81;101826.63;5048943;28;46073;-59
2022/01/01 09:35:25;;;;;;;;;10.75;7.75;;;;;10.85;77.97;101824.91;5048643;28;45685;-60
2022/01/01 09:37:51;;;;;;;;;21.00;18.00;;;;;10.83;78.09;101824.09;5046253;28;45714;-64
2022/01/01 09:40:16;;;;;;;;;18.25;17.75;;;;;10.75;77.46;101816.38;5030241;28;46890;-60
2022/01/01 09:42:43;;;;;;;;;20.50;16.00;;;;;10.84;77.96;101828.47;5048689;28;45482;-62
2022/01/01 09:45:10;;;;;;;;;13.75;10.50;;;;;10.87;78.10;101828.34;5049464;28;45417;-61
2022/01/01 09:47:36;;;;;;;;;21.50;19.75;;;;;10.94;77.12;101837.88;5049784;28;45607;-61
2022/01/01 09:50:05;;;;;;;;;15.25;13.00;;;;;10.99;77.57;101833.22;5044368;28;46245;-60
2022/01/01 09:52:30;;;;;;;;;20.50;18.00;;;;;11.00;77.40;101829.63;5052775;28;45461;-61
2022/01/01 09:54:55;;;;;;;;;22.75;16.00;;;;;11.08;76.77;101832.00;5043050;28;45996;-57
2022/01/01 09:57:22;;;;;;;;;19.75;19.75;;;;;11.10;77.00;101820.38;5055745;28;45478;-61
2022/01/01 09:59:48;;;;;;;;;21.00;16.75;;;;;11.20;75.76;101819.09;5041285;28;46537;-59
2022/01/01 10:02:13;;;;;;;;;17.75;16.25;;;;;11.27;76.04;101821.50;5057080;28;45723;-59
2022/01/01 10:04:50;;;;;;;;;15.00;15.00;;;;;11.30;75.62;101818.72;5055904;28;45494;-59
2022/01/01 10:07:16;;;;;;;;;22.25;19.50;;;;;11.30;75.35;101816.91;5041339;28;46102;-60
2022/01/01 10:09:42;;;;;;;;;19.25;16.75;;;;;11.35;75.17;101827.41;5055130;28;46183;-60
2022/01/01 10:12:10;;;;;;;;;18.50;17.00;;;;;11.32;75.86;101824.84;5054809;28;45398;-59
2022/01/01 10:14:46;;;;;;;;;15.50;15.50;;;;;11.40;75.18;101831.59;5054845;28;45287;-60
2022/01/01 10:17:17;;;;;;;;;17.00;17.00;;;;;11.47;74.64;101838.44;5054994;28;45331;-60
2022/01/01 10:19:43;;;;;;;;;16.50;16.25;;;;;11.50;75.15;101829.44;5054329;28;47487;-62
2022/01/01 10:22:13;;;;;;;;;15.75;15.75;;;;;11.57;74.96;101830.94;5056355;28;45260;-62
2022/01/01 10:27:42;;;;;;;;;14.75;11.25;;;;;11.61;74.26;101818.38;5058004;28;45307;-60
2022/01/01 10:30:29;;;;;;;;;20.00;13.67;;;;;11.79;73.29;101815.84;5057824;28;45799;-60
2022/01/01 10:33:03;;;;;;;;;19.00;15.33;;;;;11.85;73.24;101827.16;5056598;28;45295;-62
2022/01/01 10:35:34;;;;;;;;;13.00;12.00;;;;;11.91;72.89;101834.91;5058217;28;45415;-61
2022/01/01 10:38:03;;;;;;;;;16.67;14.00;;;;;11.94;72.57;101824.13;5050158;28;45194;-61
2022/01/01 10:40:28;;;;;;;;;15.33;13.33;;;;;12.00;72.81;101826.53;5030392;28;45363;-60
2022/01/01 10:42:54;;;;;;;;;17.33;15.67;;;;;12.07;72.95;101820.00;5030606;28;45553;-61
2022/01/01 10:45:30;;;;;;;;;12.67;11.67;;;;;12.16;72.37;101824.94;5054766;28;45543;-67
2022/01/01 10:48:26;;;;;;;;;17.00;15.33;;;;;12.25;72.13;101821.88;5056818;28;45373;-58
2022/01/01 10:50:53;;;;;;;;;20.67;17.00;;;;;12.39;71.83;101822.16;5056751;28;45455;-60
2022/01/01 10:53:27;;;;;;;;;15.00;15.00;;;;;12.50;71.11;101819.00;5056650;28;45467;-60
2022/01/01 10:56:00;;;;;;;;;16.67;16.67;;;;;12.56;71.02;101828.53;5056507;28;45313;-60
2022/01/01 10:58:34;;;;;;;;;13.33;13.33;;;;;12.58;70.73;101826.66;5056649;28;45472;-59
2022/01/01 11:01:02;;;;;;;;;16.33;15.00;;;;;12.64;70.48;101826.41;5060273;28;45571;-58
2022/01/01 11:03:28;;;;;;;;;18.67;17.67;;;;;12.65;70.48;101826.31;5064691;28;45492;-59
2022/01/01 11:06:10;;;;;;;;;17.67;14.33;;;;;12.73;70.64;101815.28;5060521;28;45620;-59
2022/01/01 11:08:37;;;;;;;;;13.00;12.67;;;;;12.84;70.15;101814.78;5056429;28;45363;-59
2022/01/01 11:11:03;;;;;;;;;16.00;14.00;;;;;12.90;69.61;101817.19;5055663;28;46065;-60